Time;durP1;ratioP1;P1;durP2;ratioP2;P2;SDS_P1;SDS_P2;PMS_P1;PMS_P2;Temp;Humidity;BMP_temperature;BMP_pressure;BME280_temperature;BME280_humidity;BME280_pressure;Samples;Min_cycle;Max_cycle;Signal;HPM_P1;HPM_P2
2023/04/22 00:02:22;;;;;;;3.45;2.83;;;;;;;15.91;58.99;99167.50;5013147;28;20049;-80
2023/04/22 00:04:49;;;;;;;6.47;2.70;;;;;;;15.92;59.12;99144.44;5013172;28;20139;-79
2023/04/22 00:07:16;;;;;;;4.03;2.78;;;;;;;15.93;58.98;99132.84;4994905;28;20049;-79
2023/04/22 00:09:42;;;;;;;3.47;2.72;;;;;;;15.95;58.84;99131.78;5013296;28;20221;-80
2023/04/22 00:12:12;;;;;;;4.20;2.72;;;;;;;15.97;58.92;99147.56;5013380;28;20109;-80
2023/04/22 00:14:38;;;;;;;3.67;3.00;;;;;;;15.96;58.75;99149.38;4995595;28;20146;-79
2023/04/22 00:17:05;;;;;;;3.47;2.80;;;;;;;15.96;58.34;99149.38;5012330;28;20053;-80
2023/04/22 00:19:33;;;;;;;3.38;2.95;;;;;;;15.95;58.55;99152.16;5011961;28;20427;-79
2023/04/22 00:22:00;;;;;;;3.85;3.40;;;;;;;15.92;58.41;99145.28;5011885;28;20128;-79
2023/04/22 00:24:27;;;;;;;6.97;3.35;;;;;;;15.89;58.45;99148.22;5012978;28;20145;-79
2023/04/22 00:26:53;;;;;;;5.38;3.70;;;;;;;15.87;58.38;99142.19;5012395;28;20104;-78
2023/04/22 00:29:20;;;;;;;4.80;3.92;;;;;;;15.81;58.51;99132.97;4995662;28;20657;-79
2023/04/22 00:31:47;;;;;;;4.82;3.53;;;;;;;15.77;58.63;99135.06;5012899;28;20056;-80
2023/04/22 00:34:16;;;;;;;4.13;3.67;;;;;;;15.73;58.94;99146.94;5012792;28;20053;-79
2023/04/22 00:36:43;;;;;;;3.90;3.50;;;;;;;15.70;59.27;99149.84;5011029;28;20438;-79
2023/04/22 00:39:11;;;;;;;6.32;3.75;;;;;;;15.68;59.28;99145.66;5012866;28;20120;-79
2023/04/22 00:41:38;;;;;;;4.30;3.70;;;;;;;15.66;59.44;99151.09;4995303;28;20106;-80
2023/04/22 00:44:09;;;;;;;6.80;3.90;;;;;;;15.64;59.33;99161.81;5012559;28;20058;-80
2023/04/22 00:46:37;;;;;;;5.65;3.50;;;;;;;15.64;59.54;99153.03;5011808;28;20144;-79
2023/04/22 00:49:05;;;;;;;4.70;3.88;;;;;;;15.64;59.65;99159.16;5012429;28;20061;-80
2023/04/22 00:51:32;;;;;;;5.20;3.83;;;;;;;15.66;59.56;99156.38;5012458;28;20088;-79
2023/04/22 00:54:00;;;;;;;5.95;4.03;;;;;;;15.66;59.66;99144.97;5012386;28;20442;-80
2023/04/22 00:56:28;;;;;;;6.53;3.70;;;;;;;15.66;59.73;99148.44;4994708;28;20058;-80
2023/04/22 00:58:55;;;;;;;7.20;4.18;;;;;;;15.67;59.75;99158.09;5012008;28;20104;-80
2023/04/22 01:01:22;;;;;;;7.10;4.03;;;;;;;15.67;59.49;99155.44;5012193;28;20537;-80
2023/04/22 01:03:51;;;;;;;4.93;3.83;;;;;;;15.67;59.39;99152.78;4994836;28;20061;-79
2023/04/22 01:06:22;;;;;;;11.00;4.65;;;;;;;15.65;59.06;99149.41;5011944;28;20077;-79
2023/04/22 01:08:48;;;;;;;8.40;4.63;;;;;;;15.64;59.22;99139.78;4994159;28;20116;-79
2023/04/22 01:11:15;;;;;;;5.40;4.55;;;;;;;15.63;59.05;99138.94;4994671;28;20053;-79
2023/04/22 01:13:41;;;;;;;6.40;4.43;;;;;;;15.60;59.07;99133.91;4994685;28;20057;-79
2023/04/22 01:16:09;;;;;;;6.85;4.70;;;;;;;15.56;58.83;99126.34;5010355;28;20050;-80
2023/04/22 01:18:36;;;;;;;6.38;4.05;;;;;;;15.52;58.77;99130.25;5011540;28;20057;-79
2023/04/22 01:21:03;;;;;;;6.40;4.50;;;;;;;15.47;58.91;99118.22;5011997;28;20253;-78
2023/04/22 01:23:29;;;;;;;9.20;5.22;;;;;;;15.40;58.99;99114.44;5010667;28;20064;-79
2023/04/22 01:25:56;;;;;;;10.60;4.90;;;;;;;15.36;59.24;99128.94;5011523;28;20050;-78
2023/04/22 01:28:23;;;;;;;6.45;4.65;;;;;;;15.31;59.21;99124.03;4994034;28;20145;-79
2023/04/22 01:30:51;;;;;;;6.13;4.13;;;;;;;15.26;59.37;99110.34;4994607;28;20056;-79
2023/04/22 01:33:18;;;;;;;7.30;5.20;;;;;;;15.23;59.46;99118.56;4994668;28;20053;-79
2023/04/22 01:35:44;;;;;;;6.15;4.90;;;;;;;15.19;59.32;99117.16;5011364;28;20117;-78
2023/04/22 01:38:12;;;;;;;7.53;4.70;;;;;;;15.15;59.71;99116.59;5011465;28;20050;-79
2023/04/22 01:40:38;;;;;;;5.85;4.80;;;;;;;15.11;59.75;99128.44;5011841;28;20065;-78
2023/04/22 01:43:05;;;;;;;5.97;4.40;;;;;;;15.06;59.56;99112.91;4993763;28;20050;-79
2023/04/22 01:45:32;;;;;;;6.20;5.60;;;;;;;15.03;59.89;99117.66;5011361;28;20056;-79
2023/04/22 01:47:58;;;;;;;8.18;4.82;;;;;;;15.00;59.68;99117.91;5011140;28;20060;-79
2023/04/22 01:50:25;;;;;;;6.45;4.80;;;;;;;14.95;59.83;99116.50;5011539;28;20141;-79
2023/04/22 01:52:52;;;;;;;7.07;5.20;;;;;;;14.92;59.83;99119.41;5011492;28;20057;-79
2023/04/22 01:55:18;;;;;;;7.30;5.07;;;;;;;14.88;59.75;99115.31;5011283;28;20054;-79
2023/04/22 01:57:45;;;;;;;5.80;4.70;;;;;;;14.86;59.63;99119.94;5009748;28;20058;-80
2023/04/22 02:00:12;;;;;;;7.30;5.30;;;;;;;14.82;59.27;99107.91;5011400;28;20085;-79
2023/04/22 02:02:39;;;;;;;8.98;4.90;;;;;;;14.79;59.35;99106.38;4993713;28;20650;-79
2023/04/22 02:05:06;;;;;;;7.72;4.82;;;;;;;14.77;59.36;99113.59;5011017;28;20108;-79
2023/04/22 02:07:35;;;;;;;6.28;4.88;;;;;;;14.74;59.33;99108.53;5010875;28;20081;-79
2023/04/22 02:10:05;;;;;;;5.95;4.75;;;;;;;14.70;58.98;99113.25;5011156;28;20144;-79
2023/04/22 02:12:32;;;;;;;6.63;4.68;;;;;;;14.69;58.92;99108.09;4993771;28;20092;-78
2023/04/22 02:14:59;;;;;;;5.60;4.53;;;;;;;14.66;58.98;99111.00;5008742;28;20104;-80
2023/04/22 02:17:26;;;;;;;6.22;4.78;;;;;;;14.65;58.85;99114.63;4976151;28;20066;-79
2023/04/22 02:19:52;;;;;;;4.30;3.90;;;;;;;14.64;58.92;99112.94;4985593;28;20046;-79
2023/04/22 02:22:20;;;;;;;6.60;4.57;;;;;;;14.62;58.97;99122.81;5010438;28;20392;-78
2023/04/22 02:24:47;;;;;;;7.13;4.72;;;;;;;14.62;59.08;99112.22;4993006;28;20145;-79
2023/04/22 02:27:14;;;;;;;5.95;4.55;;;;;;;14.62;58.87;99110.44;4992912;28;20133;-79
2023/04/22 02:29:40;;;;;;;8.40;4.28;;;;;;;14.61;58.84;99108.72;4991322;28;20069;-78
2023/04/22 02:32:07;;;;;;;5.13;4.10;;;;;;;14.63;58.61;99112.09;4991285;28;20495;-80
2023/04/22 02:34:35;;;;;;;5.93;4.32;;;;;;;14.64;58.40;99112.94;4990146;28;20096;-78
2023/04/22 02:37:02;;;;;;;5.57;4.47;;;;;;;14.66;58.26;99105.72;4990421;28;20058;-78
2023/04/22 02:39:28;;;;;;;5.50;4.47;;;;;;;14.67;58.40;99107.38;4973816;28;20080;-78
2023/04/22 02:41:55;;;;;;;6.72;4.30;;;;;;;14.67;58.09;99102.94;4991208;28;20442;-79
2023/04/22 02:44:21;;;;;;;4.32;3.92;;;;;;;14.69;58.16;99110.75;4991205;28;20051;-78
2023/04/22 02:46:48;;;;;;;9.25;5.35;;;;;;;14.70;57.84;99107.13;4990426;28;20645;-79
2023/04/22 02:49:15;;;;;;;8.18;4.35;;;;;;;14.70;57.83;99102.66;4991162;28;20085;-78
2023/04/22 02:51:41;;;;;;;7.30;4.70;;;;;;;14.71;57.84;99101.69;4990091;28;20058;-78
2023/04/22 02:54:08;;;;;;;7.43;4.90;;;;;;;14.71;57.66;99104.34;4991207;28;20085;-78
2023/04/22 02:56:35;;;;;;;6.50;4.40;;;;;;;14.72;57.80;99099.88;4990640;28;20129;-78
2023/04/22 02:59:01;;;;;;;7.55;4.65;;;;;;;14.73;57.67;99102.41;4991119;28;20142;-79
2023/04/22 03:01:28;;;;;;;7.97;4.32;;;;;;;14.74;57.56;99097.94;4973672;28;20090;-79
2023/04/22 03:03:55;;;;;;;5.30;4.30;;;;;;;14.75;57.51;99096.13;4973789;28;20050;-78
2023/04/22 03:06:22;;;;;;;5.88;4.57;;;;;;;14.77;57.50;99096.88;4990815;28;20088;-78
2023/04/22 03:08:49;;;;;;;6.93;4.32;;;;;;;14.77;57.24;99100.34;4990783;28;20085;-78
2023/04/22 03:11:15;;;;;;;7.28;4.93;;;;;;;14.77;57.34;99092.41;4991129;28;20538;-79
2023/04/22 03:13:42;;;;;;;6.10;4.25;;;;;;;14.78;57.17;99094.09;4991138;28;20109;-78
2023/04/22 03:16:08;;;;;;;5.25;4.05;;;;;;;14.79;57.08;99093.13;4978158;28;20054;-79
2023/04/22 03:18:35;;;;;;;6.15;4.43;;;;;;;14.79;57.19;99095.78;5060899;23;20054;-79
2023/04/22 03:21:01;;;;;;;5.55;4.55;;;;;;;14.79;57.06;99095.78;4996234;28;20054;-80
2023/04/22 03:23:28;;;;;;;10.07;5.03;;;;;;;14.79;56.86;99097.56;4990282;28;20097;-80
2023/04/22 03:25:54;;;;;;;5.55;4.78;;;;;;;14.81;57.10;99090.34;4987663;28;20583;-80
2023/04/22 03:28:20;;;;;;;7.57;4.28;;;;;;;14.79;56.88;99090.47;4987195;28;20515;-80
2023/04/22 03:30:47;;;;;;;7.10;4.75;;;;;;;14.82;56.84;99092.03;5001739;28;20493;-80
2023/04/22 03:33:13;;;;;;;6.80;4.80;;;;;;;14.81;56.69;99093.81;4987065;28;20077;-80
2023/04/22 03:35:40;;;;;;;6.22;4.68;;;;;;;14.82;56.89;99094.66;5004831;28;20096;-80
2023/04/22 03:38:07;;;;;;;9.05;4.95;;;;;;;14.81;57.06;99082.41;5002153;28;20517;-80
2023/04/22 03:40:33;;;;;;;7.10;4.75;;;;;;;14.81;56.89;99087.69;5010609;28;20057;-80
2023/04/22 03:42:59;;;;;;;7.10;5.07;;;;;;;14.81;56.76;99077.09;5007131;28;20579;-80
2023/04/22 03:45:26;;;;;;;11.00;5.32;;;;;;;14.81;56.67;99077.91;5001635;28;20402;-80
2023/04/22 03:47:52;;;;;;;7.38;5.10;;;;;;;14.82;56.52;99076.13;5004780;28;20057;-80
2023/04/22 03:50:19;;;;;;;6.07;4.60;;;;;;;14.82;56.59;99078.78;5013120;28;20098;-80
2023/04/22 03:52:45;;;;;;;6.70;5.07;;;;;;;14.81;56.70;99075.28;5013233;28;20113;-80
2023/04/22 03:55:11;;;;;;;8.57;4.90;;;;;;;14.82;56.37;99078.78;5012310;28;20115;-80
2023/04/22 03:57:38;;;;;;;5.25;4.53;;;;;;;14.82;56.68;99074.31;5002347;28;20508;-80
2023/04/22 04:00:05;;;;;;;6.55;4.70;;;;;;;14.82;56.52;99073.47;5000057;28;20162;-80
2023/04/22 04:02:31;;;;;;;6.75;5.47;;;;;;;14.82;56.54;99073.47;5010136;28;20518;-80
2023/04/22 04:04:58;;;;;;;10.10;5.30;;;;;;;14.83;56.66;99080.44;5012529;28;20065;-80
2023/04/22 04:07:24;;;;;;;6.25;4.70;;;;;;;14.82;56.63;99070.81;5012487;28;20508;-80
2023/04/22 04:09:51;;;;;;;5.63;4.70;;;;;;;14.83;56.49;99069.84;4995187;28;20081;-80
2023/04/22 04:12:17;;;;;;;6.47;4.75;;;;;;;14.82;56.40;99068.19;4995388;28;20053;-80
2023/04/22 04:14:43;;;;;;;7.03;5.35;;;;;;;14.82;56.52;99073.47;5012907;28;20058;-80
2023/04/22 04:17:12;;;;;;;6.03;5.25;;;;;;;14.83;56.57;99067.19;4994738;28;20504;-80
2023/04/22 04:19:39;;;;;;;7.00;4.93;;;;;;;14.83;56.60;99075.16;5012521;28;20061;-80
2023/04/22 04:22:06;;;;;;;8.02;4.90;;;;;;;14.82;56.53;99078.78;5012584;28;20054;-80
2023/04/22 04:24:32;;;;;;;6.70;5.18;;;;;;;14.82;56.40;99079.63;5012523;28;20054;-80
2023/04/22 04:26:58;;;;;;;7.32;5.32;;;;;;;14.82;56.25;99076.13;5011809;28;20058;-80
2023/04/22 04:29:25;;;;;;;5.65;5.05;;;;;;;14.82;56.33;99073.47;5012488;28;20121;-81
2023/04/22 04:31:52;;;;;;;7.32;5.32;;;;;;;14.83;56.25;99072.50;5001718;28;20074;-80
2023/04/22 04:34:18;;;;;;;6.15;5.05;;;;;;;14.83;56.39;99064.53;4997426;28;20525;-80
2023/04/22 04:36:45;;;;;;;11.15;5.97;;;;;;;14.83;56.47;99069.84;4999910;28;20065;-81
2023/04/22 04:39:11;;;;;;;6.85;5.22;;;;;;;14.83;56.42;99065.41;5000082;28;20083;-81
2023/04/22 04:41:38;;;;;;;6.90;4.80;;;;;;;14.84;56.45;99066.25;4988445;28;20054;-80
2023/04/22 04:44:05;;;;;;;6.43;5.13;;;;;;;14.84;56.67;99059.13;4987180;28;20109;-81
2023/04/22 04:46:33;;;;;;;5.82;5.22;;;;;;;14.85;56.48;99073.22;4995465;28;20050;-81
2023/04/22 04:49:00;;;;;;;7.20;5.28;;;;;;;14.85;56.94;99062.63;5002448;28;20061;-80
2023/04/22 04:51:27;;;;;;;10.07;5.55;;;;;;;14.86;56.90;99059.00;5002692;28;20100;-81
2023/04/22 04:53:53;;;;;;;6.63;4.95;;;;;;;14.88;56.73;99067.63;5012243;28;20060;-81
2023/04/22 04:56:19;;;;;;;6.28;5.18;;;;;;;14.89;56.79;99060.53;5011593;28;20058;-80
2023/04/22 04:58:46;;;;;;;8.85;5.30;;;;;;;14.89;56.93;99056.09;5010281;28;20085;-81
2023/04/22 05:01:12;;;;;;;7.72;4.90;;;;;;;14.89;56.80;99055.22;5012006;28;20057;-81
2023/04/22 05:03:38;;;;;;;5.82;4.80;;;;;;;14.91;56.82;99063.91;5011773;28;20093;-81
2023/04/22 05:06:05;;;;;;;7.30;5.38;;;;;;;14.91;56.78;99064.72;5011329;28;20065;-81
2023/04/22 05:08:32;;;;;;;10.13;5.00;;;;;;;14.94;56.86;99060.97;5002811;28;20054;-81
2023/04/22 05:10:59;;;;;;;7.25;5.07;;;;;;;14.95;57.02;99062.66;4985879;28;20057;-81
2023/04/22 05:13:26;;;;;;;7.00;5.07;;;;;;;14.97;56.96;99063.38;5011678;28;20472;-81
2023/04/22 05:15:52;;;;;;;6.28;5.07;;;;;;;14.98;57.02;99060.59;4993817;28;20104;-81
2023/04/22 05:18:19;;;;;;;7.47;5.25;;;;;;;15.01;57.23;99063.91;5011085;28;20058;-81
2023/04/22 05:20:46;;;;;;;6.68;5.20;;;;;;;15.03;57.26;99054.03;5011355;28;20058;-81
2023/04/22 05:23:12;;;;;;;5.35;4.80;;;;;;;15.06;57.05;99069.69;5010532;28;20106;-81
2023/04/22 05:25:38;;;;;;;5.95;5.35;;;;;;;15.10;57.08;99066.63;5000630;28;20063;-80
2023/04/22 05:28:05;;;;;;;9.02;5.55;;;;;;;15.11;57.23;99063.00;4999165;28;20050;-83
2023/04/22 05:30:31;;;;;;;6.28;5.25;;;;;;;15.14;57.18;99059.22;4990930;28;20092;-81
2023/04/22 05:32:58;;;;;;;7.55;5.07;;;;;;;15.18;57.13;99068.59;5000518;28;20469;-81
2023/04/22 05:35:24;;;;;;;6.50;5.65;;;;;;;15.20;57.17;99061.34;4987283;28;20513;-81
2023/04/22 05:37:50;;;;;;;9.02;5.40;;;;;;;15.22;57.00;99064.69;4985281;28;20480;-81
2023/04/22 05:40:17;;;;;;;6.95;5.35;;;;;;;15.25;57.08;99063.59;5011508;28;20108;-81
2023/04/22 05:42:43;;;;;;;5.45;4.45;;;;;;;15.27;56.77;99069.59;5011287;28;20325;-81
2023/04/22 05:45:10;;;;;;;7.50;5.63;;;;;;;15.31;56.86;99067.50;5010822;28;20073;-81
2023/04/22 05:47:36;;;;;;;7.72;5.13;;;;;;;15.35;56.86;99074.22;5010570;28;20058;-81
2023/04/22 05:50:03;;;;;;;7.35;5.70;;;;;;;15.37;57.00;99064.34;5011344;28;20435;-81
2023/04/22 05:52:30;;;;;;;8.40;5.45;;;;;;;15.41;56.88;99062.25;4984787;28;20062;-81
2023/04/22 05:54:56;;;;;;;5.57;4.93;;;;;;;15.44;56.89;99061.97;5001512;28;20092;-81
2023/04/22 05:57:22;;;;;;;6.28;4.90;;;;;;;15.45;56.90;99064.50;4992105;28;20413;-81
2023/04/22 05:59:49;;;;;;;6.32;4.57;;;;;;;15.47;56.83;99065.19;5010854;28;20058;-81
2023/04/22 06:02:16;;;;;;;5.72;4.93;;;;;;;15.52;56.82;99071.91;4993386;28;20054;-81
2023/04/22 06:04:43;;;;;;;5.90;5.00;;;;;;;15.55;57.16;99074.28;5010812;28;20054;-81
2023/04/22 06:07:10;;;;;;;7.32;4.88;;;;;;;15.59;57.05;99070.38;4993039;28;20053;-81
2023/04/22 06:09:36;;;;;;;6.68;4.95;;;;;;;15.62;57.44;99062.13;5010806;28;20116;-81
2023/04/22 06:12:02;;;;;;;5.40;4.35;;;;;;;15.67;57.14;99062.59;5010966;28;20096;-81
2023/04/22 06:14:29;;;;;;;5.63;4.53;;;;;;;15.71;57.18;99061.34;4993284;28;20093;-81
2023/04/22 06:16:55;;;;;;;6.35;5.18;;;;;;;15.74;57.31;99055.72;5009933;28;20061;-81
2023/04/22 06:19:21;;;;;;;6.43;5.10;;;;;;;15.82;56.74;99059.50;5010608;28;20100;-81
2023/04/22 06:21:48;;;;;;;5.85;4.60;;;;;;;15.85;57.05;99049.44;5010753;28;20060;-81
2023/04/22 06:24:14;;;;;;;6.90;4.85;;;;;;;15.90;56.97;99054.34;4993122;28;20053;-81
2023/04/22 06:26:41;;;;;;;5.20;4.32;;;;;;;15.94;56.76;99053.13;4992408;28;20108;-81
2023/04/22 06:29:07;;;;;;;6.70;4.57;;;;;;;15.99;56.78;99053.53;5010403;28;20101;-81
2023/04/22 06:31:36;;;;;;;6.40;4.97;;;;;;;16.04;56.53;99053.13;4993606;28;20060;-81
2023/04/22 06:34:03;;;;;;;7.13;4.78;;;;;;;16.10;56.60;99051.72;4992925;28;20500;-80
2023/04/22 06:36:31;;;;;;;5.78;4.82;;;;;;;16.16;56.94;99053.81;5010265;28;20061;-81
2023/04/22 06:38:58;;;;;;;5.60;4.68;;;;;;;16.22;57.00;99047.09;5010394;28;20057;-81
2023/04/22 06:41:24;;;;;;;6.25;4.50;;;;;;;16.28;56.86;99052.69;5005867;28;20437;-81
2023/04/22 06:43:51;;;;;;;5.85;4.55;;;;;;;16.33;57.25;99035.50;5001774;28;20081;-81
2023/04/22 06:46:17;;;;;;;5.97;4.68;;;;;;;16.38;56.87;99038.53;5010138;28;20108;-81
2023/04/22 06:48:44;;;;;;;5.05;4.10;;;;;;;16.44;56.95;99043.28;5001449;28;20551;-81
2023/04/22 06:51:11;;;;;;;5.82;4.25;;;;;;;16.50;56.95;99047.19;5010130;28;20058;-81
2023/04/22 06:53:37;;;;;;;4.63;4.00;;;;;;;16.54;56.61;99044.09;4983610;28;20057;-81
2023/04/22 06:56:04;;;;;;;4.80;4.32;;;;;;;16.60;56.57;99047.16;4971721;28;20509;-81
2023/04/22 06:58:31;;;;;;;4.82;4.18;;;;;;;16.66;56.30;99043.91;4989018;28;20513;-81
2023/04/22 07:00:57;;;;;;;5.13;4.55;;;;;;;16.71;56.22;99040.84;4989813;28;20058;-81
2023/04/22 07:03:24;;;;;;;5.18;4.68;;;;;;;16.77;56.16;99045.56;4989787;28;20062;-81
2023/04/22 07:05:51;;;;;;;5.13;4.38;;;;;;;16.82;55.80;99034.50;4989388;28;20059;-81
2023/04/22 07:08:18;;;;;;;4.85;3.92;;;;;;;16.88;55.58;99040.06;4992696;28;20089;-81
2023/04/22 07:10:44;;;;;;;5.85;4.88;;;;;;;16.94;55.30;99038.66;4977075;28;20108;-81
2023/04/22 07:13:11;;;;;;;4.63;4.22;;;;;;;17.00;55.14;99031.88;4976857;28;20572;-80
2023/04/22 07:15:37;;;;;;;5.20;4.53;;;;;;;17.06;55.42;99040.16;4976894;28;20090;-81
2023/04/22 07:18:04;;;;;;;5.05;4.45;;;;;;;17.15;55.55;99048.22;4976467;28;20112;-81
2023/04/22 07:20:30;;;;;;;4.70;4.18;;;;;;;17.21;55.48;99045.00;4987186;28;20067;-81
2023/04/22 07:22:56;;;;;;;4.68;4.13;;;;;;;17.29;55.45;99045.09;5001837;28;20046;-81
2023/04/22 07:25:23;;;;;;;4.85;4.32;;;;;;;17.37;54.93;99048.81;4997152;28;20089;-81
2023/04/22 07:27:49;;;;;;;5.32;4.53;;;;;;;17.45;55.22;99046.22;5012083;28;20089;-81
2023/04/22 07:30:16;;;;;;;6.25;4.50;;;;;;;17.53;55.14;99041.00;5012956;28;20116;-81
2023/04/22 07:32:42;;;;;;;5.03;4.53;;;;;;;17.62;55.20;99047.25;5002152;28;20178;-81
2023/04/22 07:35:08;;;;;;;7.18;4.97;;;;;;;17.71;54.79;99045.50;5001569;28;20093;-81
2023/04/22 07:37:35;;;;;;;5.40;4.50;;;;;;;17.82;55.17;99044.44;5010628;28;20058;-81
2023/04/22 07:40:01;;;;;;;5.28;4.50;;;;;;;17.92;55.06;99047.03;5013361;28;20058;-81
2023/04/22 07:42:28;;;;;;;5.25;4.75;;;;;;;18.03;54.81;99046.81;5013470;28;20468;-81
2023/04/22 07:44:54;;;;;;;4.50;4.10;;;;;;;18.14;54.56;99039.59;5013163;28;20141;-81
2023/04/22 07:47:20;;;;;;;8.40;4.63;;;;;;;18.23;54.24;99039.50;5013402;28;20096;-82
2023/04/22 07:49:48;;;;;;;5.07;4.53;;;;;;;18.33;53.90;99036.75;5006681;28;20050;-81
2023/04/22 07:52:14;;;;;;;5.13;4.20;;;;;;;18.45;53.64;99036.47;4993756;28;20073;-81
2023/04/22 07:54:40;;;;;;;4.15;3.75;;;;;;;18.52;53.31;99037.53;4993414;28;20430;-81
2023/04/22 07:57:07;;;;;;;4.40;4.00;;;;;;;18.57;53.50;99035.22;4993080;28;20511;-82
2023/04/22 07:59:33;;;;;;;7.25;4.18;;;;;;;18.65;52.70;99036.28;4993445;28;20519;-81
2023/04/22 08:01:59;;;;;;;4.93;3.80;;;;;;;18.70;53.05;99033.97;4993715;28;20406;-81
2023/04/22 08:04:26;;;;;;;4.97;4.05;;;;;;;18.74;52.39;99033.50;4976172;28;20097;-81
2023/04/22 08:06:53;;;;;;;6.88;4.13;;;;;;;18.78;52.27;99039.34;4975619;28;20072;-82
2023/04/22 08:09:20;;;;;;;6.38;4.07;;;;;;;18.80;52.55;99029.34;4992886;28;20058;-82
2023/04/22 08:11:46;;;;;;;3.97;3.58;;;;;;;18.83;52.04;99038.84;4993212;28;20558;-82
2023/04/22 08:14:13;;;;;;;4.50;3.67;;;;;;;18.83;51.65;99037.03;4993204;28;20515;-82
2023/04/22 08:16:41;;;;;;;4.85;4.10;;;;;;;18.84;51.50;99041.34;4992637;28;20054;-82
2023/04/22 08:19:07;;;;;;;5.32;3.88;;;;;;;18.87;51.89;99042.88;4992011;28;20387;-82
2023/04/22 08:21:36;;;;;;;4.72;3.55;;;;;;;18.87;51.30;99046.38;4993209;28;20080;-82
2023/04/22 08:24:02;;;;;;;7.70;3.78;;;;;;;18.88;52.08;99040.03;4993059;28;20137;-82
2023/04/22 08:26:29;;;;;;;4.68;3.75;;;;;;;18.91;52.09;99038.88;4992869;28;20082;-82
2023/04/22 08:28:55;;;;;;;3.95;3.55;;;;;;;18.94;52.19;99038.56;4992680;28;20097;-82
2023/04/22 08:31:22;;;;;;;4.05;3.45;;;;;;;18.98;52.15;99036.41;4975545;28;20096;-82
2023/04/22 08:33:49;;;;;;;5.40;3.67;;;;;;;19.03;52.06;99039.47;4993040;28;20197;-82
2023/04/22 08:36:16;;;;;;;5.65;3.47;;;;;;;19.10;51.49;99035.16;4975163;28;20051;-82
2023/04/22 08:38:42;;;;;;;4.32;3.13;;;;;;;19.17;52.06;99040.69;4992358;28;20066;-82
2023/04/22 08:41:09;;;;;;;3.95;3.22;;;;;;;19.22;51.92;99034.88;4993000;28;20318;-82
2023/04/22 08:43:35;;;;;;;4.97;3.30;;;;;;;19.31;51.94;99039.25;4992969;28;20184;-82
2023/04/22 08:46:01;;;;;;;6.82;3.22;;;;;;;19.38;51.63;99034.09;4992414;28;20109;-82
2023/04/22 08:48:28;;;;;;;6.00;3.10;;;;;;;19.47;51.16;99034.97;4975127;28;20058;-82
2023/04/22 08:50:56;;;;;;;3.85;3.40;;;;;;;19.55;50.29;99026.13;4992390;28;20129;-82
2023/04/22 08:53:23;;;;;;;5.03;3.50;;;;;;;19.61;50.14;99030.78;4975094;28;20054;-82
2023/04/22 08:55:50;;;;;;;4.15;3.03;;;;;;;19.66;50.25;99018.63;4991021;28;20051;-82
2023/04/22 08:58:16;;;;;;;4.30;3.20;;;;;;;19.71;50.75;99010.13;4975014;28;20058;-82
2023/04/22 09:00:43;;;;;;;5.93;3.85;;;;;;;19.78;50.31;99008.44;4992885;28;20476;-82
2023/04/22 09:03:10;;;;;;;4.45;3.08;;;;;;;19.86;50.19;99004.97;4992409;28;20684;-81
2023/04/22 09:05:39;;;;;;;4.47;3.60;;;;;;;19.92;50.13;99001.63;4991616;28;20417;-82
2023/04/22 09:08:06;;;;;;;5.97;3.85;;;;;;;20.01;49.82;99005.16;4984916;28;20058;-81
2023/04/22 09:10:37;;;;;;;4.53;3.97;;;;;;;20.07;48.71;98992.94;4973580;28;20478;-80
2023/04/22 09:13:05;;;;;;;4.28;3.63;;;;;;;20.16;49.36;98996.47;4983782;28;20054;-80
2023/04/22 09:15:32;;;;;;;4.43;3.42;;;;;;;20.25;49.48;98995.44;4999582;28;20562;-80
2023/04/22 09:18:00;;;;;;;4.60;3.60;;;;;;;20.35;49.66;98986.41;4991410;28;20521;-79
2023/04/22 09:20:28;;;;;;;4.28;3.50;;;;;;;20.47;49.59;98977.03;4696149;23;20054;-79
2023/04/22 09:22:56;;;;;;;4.43;3.35;;;;;;;20.59;49.35;98985.50;4991401;28;20064;-79
2023/04/22 09:25:25;;;;;;;5.28;3.53;;;;;;;20.70;49.14;98971.78;4992144;28;20065;-79
2023/04/22 09:27:57;;;;;;;4.30;3.50;;;;;;;20.83;47.92;98978.41;4991663;28;20050;-79
2023/04/22 09:30:25;;;;;;;3.42;3.13;;;;;;;20.98;48.74;98972.34;4992039;28;20461;-78
2023/04/22 09:32:56;;;;;;;6.22;3.30;;;;;;;21.09;47.71;98986.16;4992146;28;20066;-79
2023/04/22 09:35:31;;;;;;;3.95;3.40;;;;;;;21.19;47.31;98988.63;4967713;28;20070;-79
2023/04/22 09:38:00;;;;;;;6.70;3.78;;;;;;;21.31;47.80;98983.69;4984838;28;20472;-79
2023/04/22 09:40:28;;;;;;;5.22;3.22;;;;;;;21.41;47.71;98977.31;4992512;28;20149;-79
2023/04/22 09:42:57;;;;;;;4.22;3.67;;;;;;;21.51;48.37;98985.94;4972677;28;20055;-80
2023/04/22 09:45:39;;;;;;;5.82;3.13;;;;;;;21.59;48.17;98980.50;4970901;28;20058;-80
2023/04/22 09:48:13;;;;;;;4.15;3.75;;;;;;;21.75;47.23;98978.72;4951508;29;20055;-79
2023/04/22 09:50:43;;;;;;;5.05;3.60;;;;;;;21.87;46.50;98981.84;4971317;28;20171;-80
2023/04/22 09:53:11;;;;;;;4.53;3.40;;;;;;;21.96;46.68;98986.13;4972490;28;20486;-80
2023/04/22 09:55:41;;;;;;;4.85;3.13;;;;;;;22.03;47.07;98974.66;4954792;28;20491;-80
2023/04/22 09:58:10;;;;;;;6.03;3.45;;;;;;;22.10;45.71;98963.00;4972089;28;20086;-80
2023/04/22 10:00:50;;;;;;;5.05;3.55;;;;;;;22.16;44.88;98974.84;4972248;28;20109;-79
2023/04/22 10:03:17;;;;;;;3.70;3.20;;;;;;;22.25;46.14;98972.94;4971424;28;20583;-80
2023/04/22 10:05:46;;;;;;;4.13;3.25;;;;;;;22.29;46.45;98963.53;4972003;28;20141;-79
2023/04/22 10:08:14;;;;;;;7.03;3.50;;;;;;;22.38;45.75;98962.41;4971589;28;20066;-80
2023/04/22 10:10:42;;;;;;;3.95;3.53;;;;;;;22.46;45.47;98956.13;4970930;28;20412;-80
2023/04/22 10:13:09;;;;;;;6.35;3.58;;;;;;;22.56;45.75;98955.03;4972309;28;20054;-80
2023/04/22 10:15:39;;;;;;;3.78;3.28;;;;;;;22.65;45.66;98951.22;4971919;28;20062;-80
2023/04/22 10:18:09;;;;;;;3.55;3.08;;;;;;;22.74;45.58;98947.44;4971628;28;20514;-80
2023/04/22 10:20:39;;;;;;;3.90;3.50;;;;;;;22.84;44.64;98938.28;4971991;28;20070;-79
2023/04/22 10:23:17;;;;;;;2.92;2.70;;;;;;;22.87;43.81;98938.72;4972079;28;20145;-80
2023/04/22 10:25:47;;;;;;;4.45;3.28;;;;;;;22.95;44.48;98939.63;4971846;28;20059;-80
2023/04/22 10:28:15;;;;;;;4.00;3.42;;;;;;;23.00;44.71;98937.22;4971899;28;20061;-80
2023/04/22 10:30:42;;;;;;;4.45;3.55;;;;;;;23.04;44.58;98928.59;4972238;28;20059;-80
2023/04/22 10:33:27;;;;;;;4.03;2.92;;;;;;;23.03;43.79;98937.66;4971912;28;20062;-80
2023/04/22 10:36:16;;;;;;;3.92;3.17;;;;;;;23.13;43.79;98931.16;4971603;28;20067;-80
2023/04/22 10:38:48;;;;;;;4.47;3.53;;;;;;;23.23;44.67;98926.31;4971716;28;20141;-79
2023/04/22 10:41:16;;;;;;;4.63;3.47;;;;;;;23.37;45.52;98921.09;4971869;28;20054;-78
2023/04/22 10:43:45;;;;;;;7.22;3.63;;;;;;;23.52;45.89;98932.59;4978221;28;20116;-80
2023/04/22 10:46:36;;;;;;;4.78;3.30;;;;;;;23.66;45.15;98930.88;4977714;28;20054;-80
2023/04/22 10:49:16;;;;;;;4.63;4.05;;;;;;;23.85;43.94;98938.47;4978325;28;20105;-80
2023/04/22 10:51:44;;;;;;;5.57;3.65;;;;;;;23.97;44.60;98928.84;4978482;28;20051;-81
2023/04/22 10:54:30;;;;;;;5.78;3.75;;;;;;;24.06;44.10;98911.53;4978344;28;20487;-79
2023/04/22 10:57:04;;;;;;;4.30;3.40;;;;;;;24.28;44.25;98922.25;4977696;28;20145;-80
2023/04/22 10:59:33;;;;;;;3.83;3.35;;;;;;;24.52;45.16;98922.75;4978251;28;20145;-80
2023/04/22 11:02:04;;;;;;;5.72;3.60;;;;;;;24.79;43.68;98917.50;4961082;28;20055;-79
2023/04/22 11:04:32;;;;;;;4.32;3.22;;;;;;;25.16;45.56;98911.84;4978132;28;20170;-79
2023/04/22 11:07:17;;;;;;;4.10;3.28;;;;;;;25.58;44.17;98916.25;4977601;28;20061;-80
2023/04/22 11:09:44;;;;;;;4.05;3.30;;;;;;;26.09;44.85;98913.94;4978235;28;20145;-80
2023/04/22 11:12:38;;;;;;;3.72;3.40;;;;;;;26.60;43.72;98911.53;4978093;28;20059;-80
2023/04/22 11:15:06;;;;;;;3.55;2.65;;;;;;;27.15;44.19;98911.09;4977551;28;20392;-79
2023/04/22 11:17:34;;;;;;;3.45;3.15;;;;;;;27.62;43.38;98899.13;4997005;28;20133;-81
2023/04/22 11:20:01;;;;;;;3.95;3.40;;;;;;;28.05;42.29;98904.75;4997795;28;20447;-80
2023/04/22 11:22:33;;;;;;;3.50;3.05;;;;;;;28.44;40.83;98910.81;4997869;28;20058;-81
2023/04/22 11:25:00;;;;;;;4.35;3.30;;;;;;;28.68;39.65;98902.00;4989839;28;20134;-77
2023/04/22 11:27:27;;;;;;;3.33;2.75;;;;;;;28.77;39.46;98903.34;4996598;28;20058;-77
2023/04/22 11:30:01;;;;;;;3.78;3.10;;;;;;;28.79;38.85;98898.53;4989639;28;20494;-77
2023/04/22 11:32:28;;;;;;;3.97;2.90;;;;;;;28.95;39.87;98888.13;5004729;28;20541;-77
2023/04/22 11:34:56;;;;;;;3.08;2.80;;;;;;;29.19;39.74;98893.63;5016540;28;20395;-78
2023/04/22 11:37:24;;;;;;;3.40;3.10;;;;;;;29.50;38.73;98884.38;5002159;28;20100;-78